createdAt,value
2019-02-02T00:02:24.470Z,3.50
2019-02-02T00:04:50.778Z,3.50
2019-02-02T00:07:17.014Z,3.60
2019-02-02T00:09:43.379Z,3.60
2019-02-02T00:12:09.596Z,3.60
2019-02-02T00:14:35.799Z,3.60
2019-02-02T00:17:02.026Z,3.60
2019-02-02T00:19:28.235Z,3.60
2019-02-02T00:21:54.534Z,3.60
2019-02-02T00:24:20.864Z,3.70
2019-02-02T00:26:47.054Z,3.70
2019-02-02T00:29:13.384Z,3.70
2019-02-02T00:31:39.587Z,3.70
2019-02-02T00:34:06.854Z,3.70
2019-02-02T00:36:33.318Z,3.70
2019-02-02T00:38:59.538Z,3.60
2019-02-02T00:41:25.842Z,3.60
2019-02-02T00:43:52.063Z,3.70
2019-02-02T00:46:18.279Z,3.60
2019-02-02T00:48:44.499Z,3.60
2019-02-02T00:51:11.071Z,3.50
2019-02-02T00:53:37.291Z,3.50
2019-02-02T00:56:03.890Z,3.50
2019-02-02T00:58:30.111Z,3.60
2019-02-02T01:00:56.527Z,3.50
2019-02-02T01:03:22.847Z,3.50
2019-02-02T01:05:49.047Z,3.50
2019-02-02T01:08:15.303Z,3.60
2019-02-02T01:10:42.003Z,3.50
2019-02-02T01:13:08.354Z,3.50
2019-02-02T01:15:34.663Z,3.50
2019-02-02T01:18:00.972Z,3.60
2019-02-02T01:20:28.743Z,3.60
2019-02-02T01:22:55.051Z,3.70
2019-02-02T01:25:21.374Z,3.70
2019-02-02T01:27:47.782Z,3.70
2019-02-02T01:30:16.907Z,3.70
2019-02-02T01:32:44.215Z,3.80
2019-02-02T01:35:13.030Z,3.80
2019-02-02T01:37:39.438Z,3.80
2019-02-02T01:40:09.466Z,3.70
2019-02-02T01:42:35.674Z,3.80
2019-02-02T01:45:04.375Z,3.80
2019-02-02T01:47:30.583Z,3.80
2019-02-02T01:49:56.926Z,3.80
2019-02-02T01:52:23.130Z,3.90
2019-02-02T01:54:49.339Z,3.90
2019-02-02T01:57:15.562Z,3.90
2019-02-02T01:59:41.765Z,3.80
2019-02-02T02:02:08.091Z,3.80
2019-02-02T02:04:34.290Z,3.80
2019-02-02T02:07:00.523Z,3.90
2019-02-02T02:09:26.855Z,3.80
2019-02-02T02:11:53.284Z,3.80
2019-02-02T02:14:19.491Z,3.80
2019-02-02T02:16:45.719Z,3.80
2019-02-02T02:19:12.016Z,3.80
2019-02-02T02:21:38.248Z,3.80
2019-02-02T02:24:04.440Z,3.70
2019-02-02T02:26:30.858Z,3.80
2019-02-02T02:28:57.362Z,3.90
2019-02-02T02:31:23.696Z,3.80
2019-02-02T02:33:49.890Z,3.80
2019-02-02T02:36:16.168Z,3.80
2019-02-02T02:38:42.590Z,3.70
2019-02-02T02:41:09.054Z,3.70
2019-02-02T02:43:35.274Z,3.60
2019-02-02T02:46:01.544Z,3.60
2019-02-02T02:48:27.763Z,3.50
2019-02-02T02:50:53.981Z,3.50
2019-02-02T02:53:20.203Z,3.50
2019-02-02T02:55:46.691Z,3.50
2019-02-02T02:58:12.915Z,3.40
2019-02-02T03:00:39.119Z,3.50
2019-02-02T03:03:05.339Z,3.50
2019-02-02T03:05:31.971Z,3.50
2019-02-02T03:07:58.196Z,3.50
2019-02-02T03:10:25.204Z,3.50
2019-02-02T03:12:51.827Z,3.40
2019-02-02T03:15:18.747Z,3.40
2019-02-02T03:17:46.068Z,3.40
2019-02-02T03:20:14.077Z,3.40
2019-02-02T03:22:40.527Z,3.40
2019-02-02T03:25:15.043Z,3.30
2019-02-02T03:27:41.252Z,3.30
2019-02-02T03:30:10.578Z,3.40
2019-02-02T03:32:36.942Z,3.30
2019-02-02T03:35:05.303Z,3.30
2019-02-02T03:37:31.502Z,3.30
2019-02-02T03:39:57.720Z,3.30
2019-02-02T03:42:23.921Z,3.40
2019-02-02T03:44:50.159Z,3.40
2019-02-02T03:47:16.367Z,3.40
2019-02-02T03:49:42.891Z,3.40
2019-02-02T03:52:09.236Z,3.40
2019-02-02T03:54:35.454Z,3.40
2019-02-02T03:57:02.001Z,3.50
2019-02-02T03:59:28.206Z,3.40
2019-02-02T04:01:54.431Z,3.40
2019-02-02T04:04:20.643Z,3.40
2019-02-02T04:06:46.984Z,3.50
2019-02-02T04:09:13.275Z,3.40
2019-02-02T04:11:39.501Z,3.50
2019-02-02T04:14:06.011Z,3.50
2019-02-02T04:16:32.238Z,3.50
2019-02-02T04:18:58.434Z,3.50
2019-02-02T04:21:24.666Z,3.50
2019-02-02T04:23:50.883Z,3.50
2019-02-02T04:26:17.110Z,3.40
2019-02-02T04:28:43.426Z,3.50
2019-02-02T04:31:09.755Z,3.60
2019-02-02T04:33:35.958Z,3.60
2019-02-02T04:36:02.476Z,3.60
2019-02-02T04:38:28.800Z,3.60
2019-02-02T04:40:55.097Z,3.70
2019-02-02T04:43:21.295Z,3.60
2019-02-02T04:45:47.579Z,3.70
2019-02-02T04:48:14.807Z,3.70
2019-02-02T04:50:59.423Z,3.70
2019-02-02T04:53:25.718Z,3.60
2019-02-02T04:55:51.947Z,3.70
2019-02-02T04:58:18.146Z,3.70
2019-02-02T05:00:44.346Z,3.60
2019-02-02T05:03:10.566Z,3.60
2019-02-02T05:05:36.775Z,3.70
2019-02-02T05:08:03.290Z,3.70
2019-02-02T05:10:29.495Z,3.70
2019-02-02T05:12:55.727Z,3.70
2019-02-02T05:15:22.041Z,3.60
2019-02-02T05:17:48.257Z,3.70
2019-02-02T05:20:16.567Z,3.60
2019-02-02T05:22:42.988Z,3.60
2019-02-02T05:25:09.498Z,3.60
2019-02-02T05:27:35.733Z,3.70
2019-02-02T05:30:05.238Z,3.70
2019-02-02T05:32:31.446Z,3.70
2019-02-02T05:34:57.670Z,3.60
2019-02-02T05:37:23.871Z,3.70
2019-02-02T05:39:50.094Z,3.60
2019-02-02T05:42:16.296Z,3.70
2019-02-02T05:44:42.510Z,3.70
2019-02-02T05:47:08.710Z,3.70
2019-02-02T05:49:34.942Z,3.70
2019-02-02T05:52:01.151Z,3.70
2019-02-02T05:54:27.389Z,3.70
2019-02-02T05:56:53.597Z,3.70
2019-02-02T05:59:20.132Z,3.60
2019-02-02T06:01:46.341Z,3.60
2019-02-02T06:04:12.542Z,3.60
2019-02-02T06:06:38.762Z,3.60
2019-02-02T06:09:05.371Z,3.60
2019-02-02T06:11:31.586Z,3.70
2019-02-02T06:13:57.785Z,3.60
2019-02-02T06:16:24.011Z,3.60
2019-02-02T06:18:50.335Z,3.70
2019-02-02T06:21:16.596Z,3.60
2019-02-02T06:23:42.790Z,3.70
2019-02-02T06:26:09.015Z,3.60
2019-02-02T06:28:35.365Z,3.60
2019-02-02T06:31:01.575Z,3.60
2019-02-02T06:33:27.799Z,3.60
2019-02-02T06:35:53.994Z,3.60
2019-02-02T06:38:20.223Z,3.50
2019-02-02T06:40:46.427Z,3.60
2019-02-02T06:43:12.642Z,3.60
2019-02-02T06:45:38.847Z,3.60
2019-02-02T06:48:05.092Z,3.60
2019-02-02T06:50:31.410Z,3.50
2019-02-02T06:52:58.526Z,3.50
2019-02-02T06:55:24.725Z,3.60
2019-02-02T06:57:51.047Z,3.60
2019-02-02T07:00:26.318Z,3.50
2019-02-02T07:02:52.003Z,3.50
2019-02-02T07:05:18.310Z,3.50
2019-02-02T07:07:44.742Z,3.50
2019-02-02T07:10:16.867Z,3.50
2019-02-02T07:12:43.067Z,3.50
2019-02-02T07:15:12.382Z,3.60
2019-02-02T07:17:38.591Z,3.50
2019-02-02T07:20:08.570Z,3.50
2019-02-02T07:22:34.775Z,3.60
2019-02-02T07:25:00.995Z,3.60
2019-02-02T07:27:27.311Z,3.60
2019-02-02T07:29:53.541Z,3.70
2019-02-02T07:32:19.759Z,3.70
2019-02-02T07:34:46.067Z,3.70
2019-02-02T07:37:12.271Z,3.80
2019-02-02T07:39:38.491Z,3.80
2019-02-02T07:42:04.690Z,3.80
2019-02-02T07:44:30.914Z,3.90
2019-02-02T07:46:57.474Z,3.90
2019-02-02T07:49:23.709Z,3.90
2019-02-02T07:51:50.002Z,3.90
2019-02-02T07:54:16.234Z,4.00
2019-02-02T07:56:42.535Z,4.10
2019-02-02T07:59:08.742Z,4.10
2019-02-02T08:01:34.963Z,4.20
2019-02-02T08:04:01.267Z,4.20
2019-02-02T08:06:27.490Z,4.20
2019-02-02T08:08:53.702Z,4.20
2019-02-02T08:11:19.914Z,4.20
2019-02-02T08:13:46.118Z,3.90
2019-02-02T08:16:12.374Z,3.80
2019-02-02T08:18:38.682Z,3.80
2019-02-02T08:21:05.233Z,3.70
2019-02-02T08:23:31.443Z,3.80
2019-02-02T08:25:57.662Z,3.90
2019-02-02T08:28:23.871Z,3.90
2019-02-02T08:30:52.547Z,3.90
2019-02-02T08:33:18.404Z,3.90
2019-02-02T08:35:44.610Z,3.90
2019-02-02T08:38:10.829Z,3.90
2019-02-02T08:40:37.239Z,4.00
2019-02-02T08:43:03.863Z,4.00
2019-02-02T08:45:30.162Z,4.00
2019-02-02T08:47:56.598Z,4.00
2019-02-02T08:50:25.731Z,4.00
2019-02-02T08:52:52.144Z,4.00
2019-02-02T08:55:18.585Z,4.00
2019-02-02T08:57:45.242Z,4.00
2019-02-02T09:00:30.409Z,4.10
2019-02-02T09:02:57.164Z,4.10
2019-02-02T09:05:23.720Z,4.20
2019-02-02T09:07:50.184Z,4.20
2019-02-02T09:10:18.729Z,4.10
2019-02-02T09:12:45.374Z,4.00
2019-02-02T09:15:14.296Z,4.10
2019-02-02T09:17:41.175Z,4.10
2019-02-02T09:20:10.727Z,4.20
2019-02-02T09:22:37.134Z,4.30
2019-02-02T09:25:07.174Z,4.30
2019-02-02T09:27:33.386Z,4.30
2019-02-02T09:29:59.613Z,4.30
2019-02-02T09:32:25.835Z,4.20
2019-02-02T09:34:52.077Z,4.20
2019-02-02T09:37:18.458Z,4.30
2019-02-02T09:39:44.811Z,4.20
2019-02-02T09:42:11.031Z,4.20
2019-02-02T09:44:37.254Z,4.30
2019-02-02T09:47:03.838Z,4.20
2019-02-02T09:49:31.470Z,4.30
2019-02-02T09:51:58.155Z,4.20
2019-02-02T09:54:26.576Z,4.30
2019-02-02T09:56:52.487Z,4.40
2019-02-02T09:59:18.707Z,4.50
2019-02-02T10:01:44.911Z,4.60
2019-02-02T10:04:11.153Z,4.70
2019-02-02T10:06:37.423Z,4.80
2019-02-02T10:09:05.950Z,4.90
2019-02-02T10:11:32.174Z,5.00
2019-02-02T10:13:58.375Z,5.30
2019-02-02T10:16:24.594Z,5.50
2019-02-02T10:18:50.894Z,5.30
2019-02-02T10:21:17.119Z,5.20
2019-02-02T10:26:11.663Z,5.20
2019-02-02T10:28:38.088Z,5.50
2019-02-02T10:31:04.322Z,5.30
2019-02-02T10:33:30.527Z,5.30
2019-02-02T10:35:56.859Z,5.30
2019-02-02T10:38:23.084Z,5.40
2019-02-02T10:40:49.610Z,5.30
2019-02-02T10:43:15.861Z,5.20
2019-02-02T10:45:42.083Z,5.10
2019-02-02T10:48:11.087Z,4.90
2019-02-02T10:50:37.304Z,4.90
2019-02-02T10:53:03.811Z,4.70
2019-02-02T10:55:30.040Z,4.70
2019-02-02T10:57:56.746Z,4.60
2019-02-02T11:00:34.580Z,4.70
2019-02-02T11:03:01.250Z,4.50
2019-02-02T11:05:30.619Z,4.50
2019-02-02T11:07:57.316Z,4.50
2019-02-02T11:10:29.005Z,4.50
2019-02-02T11:12:55.848Z,4.40
2019-02-02T11:15:23.465Z,4.50
2019-02-02T11:17:50.137Z,4.50
2019-02-02T11:20:26.441Z,4.50
2019-02-02T11:22:52.736Z,4.50
2019-02-02T11:25:19.074Z,4.50
2019-02-02T11:27:45.874Z,4.40
2019-02-02T11:30:15.622Z,4.40
2019-02-02T11:32:42.678Z,4.30
2019-02-02T11:35:11.402Z,4.30
2019-02-02T11:37:37.632Z,4.30
2019-02-02T11:40:07.642Z,4.60
2019-02-02T11:42:33.891Z,4.60
2019-02-02T11:45:00.357Z,4.60
2019-02-02T11:47:26.587Z,4.60
2019-02-02T11:49:52.839Z,4.60
2019-02-02T11:52:19.130Z,4.70
2019-02-02T11:54:45.354Z,4.90
2019-02-02T11:57:11.642Z,4.80
2019-02-02T11:59:37.941Z,5.00
2019-02-02T12:02:14.384Z,4.70
2019-02-02T12:04:32.546Z,4.60
2019-02-02T12:06:58.759Z,4.60
2019-02-02T12:09:24.970Z,4.50
2019-02-02T12:11:51.187Z,4.60
2019-02-02T12:14:17.419Z,4.40
2019-02-02T12:16:43.797Z,4.40
2019-02-02T12:19:10.007Z,4.50
2019-02-02T12:21:36.238Z,4.40
2019-02-02T12:24:14.220Z,4.40
2019-02-02T12:26:30.659Z,4.30
2019-02-02T12:28:56.875Z,4.30
2019-02-02T12:31:23.402Z,4.30
2019-02-02T12:33:52.443Z,4.30
2019-02-02T12:36:18.665Z,4.30
2019-02-02T12:38:44.970Z,4.30
2019-02-02T12:41:11.225Z,4.20
2019-02-02T12:43:37.442Z,4.30
2019-02-02T12:46:03.874Z,4.30
2019-02-02T12:48:32.156Z,4.40
2019-02-02T12:50:58.310Z,4.40
2019-02-02T12:53:24.522Z,4.50
2019-02-02T12:55:51.040Z,4.30
2019-02-02T12:58:17.355Z,4.20
2019-02-02T13:00:44.383Z,4.20
2019-02-02T13:03:10.837Z,4.20
2019-02-02T13:05:39.041Z,4.30
2019-02-02T13:08:05.791Z,4.20
2019-02-02T13:10:32.374Z,4.30
2019-02-02T13:12:58.794Z,4.20
2019-02-02T13:15:25.000Z,4.30
2019-02-02T13:17:51.529Z,4.20
2019-02-02T13:20:18.030Z,4.20
2019-02-02T13:22:44.456Z,4.10
2019-02-02T13:25:13.664Z,4.10
2019-02-02T13:27:39.980Z,4.20
2019-02-02T13:30:10.038Z,4.20
2019-02-02T13:32:36.259Z,4.20
2019-02-02T13:35:05.724Z,4.20
2019-02-02T13:37:31.926Z,4.10
2019-02-02T13:39:58.152Z,4.00
2019-02-02T13:42:24.376Z,4.10
2019-02-02T13:44:50.594Z,4.00
2019-02-02T13:47:16.802Z,4.00
2019-02-02T13:49:58.491Z,4.10
2019-02-02T13:52:24.799Z,4.20
2019-02-02T13:54:51.019Z,4.20
2019-02-02T13:57:17.230Z,4.00
2019-02-02T13:59:43.446Z,4.00
2019-02-02T14:02:09.751Z,4.00
2019-02-02T14:04:35.974Z,4.10
2019-02-02T14:07:02.582Z,4.00
2019-02-02T14:09:28.801Z,4.00
2019-02-02T14:11:55.006Z,4.00
2019-02-02T14:14:21.228Z,3.90
2019-02-02T14:16:47.432Z,3.80
2019-02-02T14:19:13.646Z,3.70
2019-02-02T14:21:39.966Z,3.60
2019-02-02T14:24:06.194Z,3.60
2019-02-02T14:26:32.406Z,3.70
2019-02-02T14:28:58.606Z,3.70
2019-02-02T14:31:24.828Z,3.70
2019-02-02T14:33:51.039Z,3.50
2019-02-02T14:36:17.359Z,3.50
2019-02-02T14:38:43.567Z,3.50
2019-02-02T14:41:09.802Z,3.50
2019-02-02T14:43:36.018Z,3.40
2019-02-02T14:46:02.236Z,3.30
2019-02-02T14:48:28.434Z,3.40
2019-02-02T14:50:54.650Z,3.60
2019-02-02T14:53:20.955Z,3.50
2019-02-02T14:55:47.194Z,3.40
2019-02-02T14:58:13.655Z,3.40
2019-02-02T15:00:39.963Z,3.30
2019-02-02T15:03:06.261Z,3.20
2019-02-02T15:05:42.548Z,3.20
2019-02-02T15:08:00.783Z,3.10
2019-02-02T15:10:26.987Z,3.20
2019-02-02T15:12:56.388Z,3.20
2019-02-02T15:15:22.686Z,3.40
2019-02-02T15:17:48.996Z,3.30
2019-02-02T15:20:32.242Z,3.20
2019-02-02T15:22:58.657Z,3.20
2019-02-02T15:25:25.131Z,3.20
2019-02-02T15:27:51.786Z,3.20
2019-02-02T15:30:27.564Z,3.20
2019-02-02T15:32:54.210Z,3.20
2019-02-02T15:35:20.815Z,3.20
2019-02-02T15:37:47.245Z,3.20
2019-02-02T15:40:15.563Z,3.20
2019-02-02T15:42:41.882Z,3.20
2019-02-02T15:45:10.907Z,3.20
2019-02-02T15:47:37.196Z,3.20
2019-02-02T15:50:07.227Z,3.20
2019-02-02T15:52:33.735Z,3.10
2019-02-02T15:54:59.951Z,3.20
2019-02-02T15:57:26.175Z,3.10
2019-02-02T15:59:52.395Z,3.20
2019-02-02T16:02:18.598Z,3.10
2019-02-02T16:04:44.819Z,3.00
2019-02-02T16:07:11.131Z,3.00
2019-02-02T16:09:37.350Z,2.90
2019-02-02T16:12:03.652Z,2.90
2019-02-02T16:14:29.881Z,2.80
2019-02-02T16:16:56.189Z,2.70
2019-02-02T16:19:22.507Z,2.70
2019-02-02T16:22:20.949Z,2.60
2019-02-02T16:24:47.178Z,2.60
2019-02-02T16:27:13.383Z,2.70
2019-02-02T16:29:39.610Z,2.70
2019-02-02T16:32:05.855Z,2.70
2019-02-02T16:34:33.036Z,2.60
2019-02-02T16:36:59.243Z,2.60
2019-02-02T16:39:25.440Z,2.70
2019-02-02T16:41:51.683Z,2.80
2019-02-02T16:44:17.886Z,2.70
2019-02-02T16:46:44.110Z,2.70
2019-02-02T16:49:10.655Z,2.70
2019-02-02T16:51:36.988Z,2.80
2019-02-02T16:54:03.499Z,2.70
2019-02-02T16:56:29.719Z,2.70
2019-02-02T16:58:55.914Z,2.80
2019-02-02T17:01:22.134Z,2.80
2019-02-02T17:03:48.334Z,2.70
2019-02-02T17:06:14.551Z,2.70
2019-02-02T17:08:40.750Z,2.60
2019-02-02T17:11:07.005Z,2.60
2019-02-02T17:13:33.208Z,2.70
2019-02-02T17:15:59.407Z,2.70
2019-02-02T17:18:25.635Z,2.80
2019-02-02T17:20:51.840Z,2.80
2019-02-02T17:23:18.159Z,2.70
2019-02-02T17:25:44.366Z,2.70
2019-02-02T17:28:10.786Z,2.70
2019-02-02T17:30:37.103Z,2.60
2019-02-02T17:33:06.024Z,2.70
2019-02-02T17:35:32.250Z,2.60
2019-02-02T17:37:58.574Z,2.60
2019-02-02T17:40:28.836Z,2.60
2019-02-02T17:42:55.250Z,2.60
2019-02-02T17:45:22.295Z,2.60
2019-02-02T17:47:48.623Z,2.60
2019-02-02T17:50:21.344Z,2.70
2019-02-02T17:52:47.869Z,2.60
2019-02-02T17:55:14.874Z,2.60
2019-02-02T17:57:41.408Z,2.60
2019-02-02T18:00:16.682Z,2.50
2019-02-02T18:02:42.903Z,2.50
2019-02-02T18:05:09.326Z,2.50
2019-02-02T18:07:35.638Z,2.50
2019-02-02T18:10:03.072Z,2.50
2019-02-02T18:12:29.273Z,2.50
2019-02-02T18:14:55.503Z,2.50
2019-02-02T18:17:21.707Z,2.40
2019-02-02T18:19:47.922Z,2.40
2019-02-02T18:22:14.122Z,2.40
2019-02-02T18:24:40.338Z,2.40
2019-02-02T18:27:06.614Z,2.40
2019-02-02T18:29:32.833Z,2.40
2019-02-02T18:31:59.038Z,2.40
2019-02-02T18:34:25.250Z,2.40
2019-02-02T18:36:51.602Z,2.40
2019-02-02T18:39:17.882Z,2.50
2019-02-02T18:41:44.118Z,2.50
2019-02-02T18:44:10.315Z,2.50
2019-02-02T18:46:36.542Z,2.40
2019-02-02T18:49:04.649Z,2.40
2019-02-02T18:51:30.894Z,2.50
2019-02-02T18:53:57.102Z,2.50
2019-02-02T18:56:23.322Z,2.60
2019-02-02T18:58:49.523Z,2.70
2019-02-02T19:01:15.954Z,2.70
2019-02-02T19:03:42.254Z,2.60
2019-02-02T19:06:08.673Z,2.50
2019-02-02T19:08:34.879Z,2.50
2019-02-02T19:11:03.562Z,2.50
2019-02-02T19:13:29.218Z,2.60
2019-02-02T19:15:55.422Z,2.50
2019-02-02T19:18:21.814Z,2.60
2019-02-02T19:20:48.145Z,2.50
2019-02-02T19:23:24.860Z,2.50
2019-02-02T19:25:42.546Z,2.40
2019-02-02T19:28:08.769Z,2.50
2019-02-02T19:30:35.074Z,2.50
2019-02-02T19:33:01.398Z,2.50
2019-02-02T19:35:28.606Z,2.40
2019-02-02T19:37:54.923Z,2.40
2019-02-02T19:40:21.310Z,2.40
2019-02-02T19:42:47.625Z,2.50
2019-02-02T19:45:16.841Z,2.50
2019-02-02T19:47:43.359Z,2.50
2019-02-02T19:50:13.166Z,2.50
2019-02-02T19:52:40.633Z,2.40
2019-02-02T19:55:14.296Z,2.40
2019-02-02T19:57:35.483Z,2.40
2019-02-02T20:00:03.904Z,2.40
2019-02-02T20:02:30.194Z,2.40
2019-02-02T20:04:56.414Z,2.30
2019-02-02T20:07:22.623Z,2.40
2019-02-02T20:09:49.174Z,2.40
2019-02-02T20:12:15.387Z,2.50
2019-02-02T20:14:41.598Z,2.40
2019-02-02T20:17:07.802Z,2.40
2019-02-02T20:19:34.018Z,2.40
2019-02-02T20:22:00.230Z,2.40
2019-02-02T20:24:26.457Z,2.30
2019-02-02T20:26:52.654Z,2.30
2019-02-02T20:29:18.882Z,2.20
2019-02-02T20:31:45.087Z,2.30
2019-02-02T20:34:11.342Z,2.30
2019-02-02T20:36:37.863Z,2.20
2019-02-02T20:39:05.671Z,2.30
2019-02-02T20:41:32.191Z,2.30
2019-02-02T20:43:58.398Z,2.20
2019-02-02T20:46:24.798Z,2.20
2019-02-02T20:48:50.994Z,2.20
2019-02-02T20:51:17.210Z,2.30
2019-02-02T20:53:43.416Z,2.30
2019-02-02T20:56:09.638Z,2.20
2019-02-02T20:58:35.848Z,2.30
2019-02-02T21:01:02.750Z,2.40
2019-02-02T21:03:29.370Z,2.40
2019-02-02T21:05:55.675Z,2.40
2019-02-02T21:08:21.900Z,2.40
2019-02-02T21:10:48.102Z,2.40
2019-02-02T21:13:14.323Z,2.40
2019-02-02T21:15:40.521Z,2.40
2019-02-02T21:18:06.941Z,2.40
2019-02-02T21:20:33.442Z,2.30
2019-02-02T21:22:59.766Z,2.30
2019-02-02T21:25:25.966Z,2.40
2019-02-02T21:27:52.298Z,2.50
2019-02-02T21:30:27.558Z,2.50
2019-02-02T21:32:53.999Z,2.50
2019-02-02T21:35:20.906Z,2.60
2019-02-02T21:37:47.214Z,2.60
2019-02-02T21:40:18.886Z,2.50
2019-02-02T21:42:45.086Z,2.50
2019-02-02T21:45:12.807Z,2.50
2019-02-02T21:47:39.212Z,2.40
2019-02-02T21:50:18.117Z,2.40
2019-02-02T21:52:44.423Z,2.30
2019-02-02T21:55:13.442Z,2.40
2019-02-02T21:57:39.755Z,2.40
2019-02-02T22:00:15.328Z,2.40
2019-02-02T22:02:42.198Z,2.40
2019-02-02T22:05:09.044Z,2.30
2019-02-02T22:07:35.242Z,2.40
2019-02-02T22:10:01.538Z,2.30
2019-02-02T22:12:27.763Z,2.40
2019-02-02T22:14:53.975Z,2.50
2019-02-02T22:17:20.185Z,2.50
2019-02-02T22:19:46.795Z,2.50
2019-02-02T22:22:13.010Z,2.50
2019-02-02T22:24:39.210Z,2.60
2019-02-02T22:27:05.430Z,2.50
2019-02-02T22:29:31.758Z,2.40
2019-02-02T22:31:57.970Z,2.40
2019-02-02T22:34:24.201Z,2.40
2019-02-02T22:36:50.495Z,2.40
2019-02-02T22:39:16.695Z,2.40
2019-02-02T22:41:42.912Z,2.40
2019-02-02T22:44:09.122Z,2.50
2019-02-02T22:46:35.347Z,2.50
2019-02-02T22:49:01.750Z,2.50
2019-02-02T22:51:28.191Z,2.50
2019-02-02T22:53:54.515Z,2.60
2019-02-02T22:56:20.810Z,2.50
2019-02-02T22:58:47.039Z,2.50
2019-02-02T23:01:20.246Z,2.50
2019-02-02T23:03:56.490Z,2.50
2019-02-02T23:06:39.414Z,2.50
2019-02-02T23:09:26.958Z,2.50
2019-02-02T23:12:06.304Z,2.50
2019-02-02T23:14:48.394Z,2.40
2019-02-02T23:17:14.590Z,2.50
2019-02-02T23:19:40.917Z,2.50
2019-02-02T23:22:07.518Z,2.40
2019-02-02T23:24:34.044Z,2.40
2019-02-02T23:27:00.582Z,2.50
2019-02-02T23:29:26.962Z,2.50
2019-02-02T23:31:53.420Z,2.40
2019-02-02T23:34:19.739Z,2.50
2019-02-02T23:36:52.079Z,2.50
2019-02-02T23:39:14.470Z,2.40
2019-02-02T23:41:40.931Z,2.50
2019-02-02T23:44:07.722Z,2.60
2019-02-02T23:46:34.533Z,2.50
2019-02-02T23:49:01.163Z,2.50
2019-02-02T23:51:27.920Z,2.50
2019-02-02T23:53:54.491Z,2.50
2019-02-02T23:56:20.859Z,2.50
2019-02-02T23:58:47.061Z,2.40
